メインページ
METAR-TAF:

METAR-TAF

空港 :

ヴォロネジ, ロシア

緯度: 51-39N, 経度: 039-15E, 海抜: 154m

現時点の気象観測

当レポートは27分前の05:00(UTC)に作成
東/北東の風 8kt
気温 -8°C
湿度 67%
気圧 1041 hPa
視程10km以上
1,500メートル以下は雲なし、積乱雲なし

METAR: UUOO 160500Z 07004MPS CAVOK M08/M13 Q1041 R12/090070 NOSIG RMK QFE766

時間: 08:27 (05:27 UTC)

予報

当レポートは3時間27分前の02:00(UTC)に作成
予報は16日の 03時(UTC)から 16日の 12時(UTC)まで有効
東/北東の風 6kt
視程10km以上
1,500メートル以下は雲なし、積乱雲なし

TAF: UUOO 160200Z 1603/1612 07003MPS CAVOK

4,000以上の空港の気象観測と天気予報(METAR報とTAF報)

利用可能な観測所は地図上に黄色い丸と赤い丸で示す。

丸の上にカーソルを重ねると観測所名を参照できる。

次にクリックすると気象観測と天気予報を参照できる。

マップの切り替え:黒色「×」印の緑ボタンをクリックして拡大、「-」印の緑ボタンをクリックして縮小、緑色の三角印をクリックして隣りの地図に切り替え


METAR-TAF: